Latest Weather Observations for Coolangatta

IDQ60901

Issued at 1:51 pm EST Tuesday 15 October 2019 (issued every 10 minutes, with the page automatically refreshed every 10 minutes)

About weather observations | Map of Brisbane area stations | Latest observations for Brisbane area | Other Formats
Station Details ID: 040717 Name: COOLANGATTA Lat: -28.17 Lon: 153.51 Height: 4.0 m
Data from the previous 72 hours. | See also: Recent months at Coolangatta
Date/Time
EST
Temp
°C
App
Temp
°C
Dew
Point
°C
Rel
Hum
%
Delta-T
°C
Wind Press
QNH
hPa
Press
MSL
hPa
Rain since
9am
mm
Dir  Spd
km/h
Gust
km/h
Spd
kts
Gust
kts
15/01:30pm 23.8 21.2 17.8 69 3.7 N 28 35 15 19 1012.2 1012.1 0.0
15/01:00pm 23.9 21.3 17.9 69 3.8 N 28 35 15 19 1012.4 1012.4 0.0
15/12:30pm 25.2 21.6 17.1 60 5.0 N 32 37 17 20 1012.7 1012.7 0.0
15/12:00pm 25.1 21.3 17.1 61 5.0 N 33 39 18 21 1012.8 1012.8 0.0
15/11:30am 25.4 21.4 16.3 57 5.6 N 32 43 17 23 1012.9 1012.9 0.0
15/11:00am 25.3 22.3 16.7 59 5.3 NNW 28 39 15 21 1013.1 1013.1 0.0
15/10:30am 24.2 21.4 17.4 65 4.2 N 28 35 15 19 1013.5 1013.5 0.0
15/10:00am 23.5 20.5 16.8 66 4.1 N 28 33 15 18 1014.2 1014.2 0.0
15/09:30am 24.0 21.6 16.3 62 4.7 NNW 24 37 13 20 1014.6 1014.6 0.0
15/09:00am 22.2 21.2 16.5 70 3.5 NNW 17 20 9 11 1015.2 1015.2 0.0
15/08:30am 21.4 21.1 16.4 73 3.0 NW 13 17 7 9 1015.6 1015.6 0.0
15/08:00am 20.8 19.4 16.6 77 2.5 NNW 19 26 10 14 1015.2 1015.2 0.0
15/07:30am 21.5 20.5 16.7 74 2.9 NW 17 24 9 13 1015.2 1015.2 0.0
15/07:00am 20.8 20.2 16.6 77 2.5 NW 15 24 8 13 1014.7 1014.7 0.0
15/06:30am 19.8 19.3 16.8 83 1.8 WNW 15 20 8 11 1014.9 1014.9 0.0
15/06:00am 18.7 19.6 16.5 87 1.3 NW 7 13 4 7 1014.5 1014.5 0.0
15/05:30am 17.5 18.4 16.2 92 0.8 WSW 6 9 3 5 1014.4 1014.4 0.0
15/05:00am 16.9 17.5 15.4 91 0.9 NNW 6 11 3 6 1014.1 1014.1 0.0
15/04:30am 17.7 18.3 15.9 89 1.1 N 7 9 4 5 1013.9 1013.9 0.0
15/04:00am 18.3 19.4 16.5 89 1.1 W 6 7 3 4 1014.3 1014.3 0.0
15/03:30am 18.1 18.8 16.1 88 1.2 W 7 11 4 6 1014.7 1014.7 0.0
15/03:00am 17.6 18.4 15.9 90 1.0 WNW 6 7 3 4 1014.0 1014.0 0.0
15/02:30am 17.2 18.9 15.2 88 1.2 CALM 0 0 0 0 1013.8 1013.8 0.0
15/02:00am 17.2 18.7 14.7 85 1.4 CALM 0 0 0 0 1014.2 1014.2 0.0
15/01:30am 18.1 19.0 15.0 82 1.8 NW 4 7 2 4 1014.8 1014.8 0.0
15/01:00am 18.2 18.6 15.3 83 1.7 NW 7 9 4 5 1014.9 1014.9 0.0
15/12:30am 17.2 17.1 15.0 87 1.3 WNW 9 11 5 6 1015.1 1015.1 0.0
15/12:00am 16.8 17.0 14.6 87 1.3 WNW 7 9 4 5 1015.3 1015.3 0.0
 
Date/Time
EST
Temp
°C
App
Temp
°C
Dew
Point
°C
Rel
Hum
%
Delta-T
°C
Wind Press
QNH
hPa
Press
MSL
hPa
Rain since
9am
mm
Dir  Spd
km/h
Gust
km/h
Spd
kts
Gust
kts
14/11:30pm 17.0 17.2 14.3 84 1.5 NW 6 7 3 4 1015.4 1015.4 0.0
14/11:00pm 17.6 17.3 14.5 82 1.8 NW 9 11 5 6 1015.4 1015.4 0.0
14/10:30pm 18.0 17.7 14.5 80 2.0 NW 9 11 5 6 1015.5 1015.5 0.0
14/10:00pm 19.2 18.7 14.9 76 2.5 NNW 11 15 6 8 1015.5 1015.5 0.0
14/09:30pm 19.5 18.7 15.2 76 2.5 NNW 13 19 7 10 1015.3 1015.3 0.0
14/09:00pm 20.0 19.2 15.0 73 2.9 NNW 13 20 7 11 1015.6 1015.6 0.0
14/08:30pm 20.2 18.6 15.0 72 3.1 NNW 17 20 9 11 1015.8 1015.8 0.0
14/08:00pm 20.2 18.7 15.4 74 2.8 NNW 17 22 9 12 1015.7 1015.7 0.0
14/07:30pm 20.2 19.0 16.0 77 2.5 NNW 17 20 9 11 1015.5 1015.5 0.0
14/07:00pm 20.6 19.4 16.2 76 2.6 N 17 20 9 11 1015.1 1015.1 0.0
14/06:30pm 20.7 19.4 15.9 74 2.9 N 17 20 9 11 1014.8 1014.8 0.0
14/06:00pm 20.8 19.0 15.6 72 3.1 N 19 24 10 13 1014.5 1014.5 0.0
14/05:30pm 21.0 19.1 15.3 70 3.4 N 19 22 10 12 1014.6 1014.6 0.0
14/05:00pm 21.3 19.5 15.4 69 3.5 NNE 19 24 10 13 1014.6 1014.6 0.0
14/04:30pm 21.3 19.2 15.2 68 3.6 NNE 20 24 11 13 1014.6 1014.6 0.0
14/04:00pm 21.5 19.3 14.4 64 4.2 NNE 19 22 10 12 1014.7 1014.7 0.0
14/03:30pm 21.7 19.6 14.6 64 4.2 NNE 19 22 10 12 1014.8 1014.8 0.0
14/03:00pm 22.3 20.3 14.9 63 4.4 NE 19 26 10 14 1014.8 1014.8 0.0
14/02:30pm 22.8 20.6 14.9 61 4.7 NE 20 26 11 14 1015.0 1015.0 0.0
14/02:00pm 22.5 20.2 14.6 61 4.7 NE 20 26 11 14 1015.5 1015.5 0.0
14/01:30pm 22.4 19.5 14.0 59 4.9 NE 22 28 12 15 1015.8 1015.8 0.0
14/01:00pm 22.7 20.5 14.8 61 4.7 NE 20 28 11 15 1016.3 1016.3 0.0
14/12:30pm 22.1 19.3 14.2 61 4.6 NE 22 28 12 15 1016.7 1016.7 0.0
14/12:00pm 22.5 20.0 14.1 59 4.9 NE 20 28 11 15 1017.3 1017.3 0.0
14/11:30am 21.4 18.6 13.3 60 4.6 NE 20 24 11 13 1017.9 1017.9 0.0
14/11:00am 21.6 18.9 13.5 60 4.7 NE 20 26 11 14 1018.3 1018.3 0.0
14/10:30am 22.1 19.3 13.2 57 5.1 NE 20 24 11 13 1018.8 1018.8 0.0
14/10:00am 22.1 19.2 12.4 54 5.5 NE 19 22 10 12 1019.0 1019.0 0.0
14/09:30am 21.6 19.7 11.9 54 5.4 NE 13 17 7 9 1019.3 1019.3 0.0
14/09:00am 21.4 19.5 11.7 54 5.4 NE 13 19 7 10 1019.4 1019.4 0.0
14/08:30am 21.5 20.7 11.8 54 5.4 E 7 11 4 6 1019.7 1019.7 0.0
14/08:00am 20.6 19.7 11.5 56 5.0 WSW 7 11 4 6 1019.2 1019.2 0.0
14/07:30am 19.1 18.0 11.9 63 4.0 SW 9 13 5 7 1019.1 1019.1 0.0
14/07:00am 17.9 18.6 12.1 69 3.2 CALM 0 0 0 0 1019.1 1019.1 0.0
14/06:30am 16.1 16.9 12.5 79 2.0 CALM 0 0 0 0 1019.1 1019.1 0.0
14/06:00am 14.5 14.3 13.0 91 0.8 SSW 6 9 3 5 1019.0 1019.0 0.0
14/05:30am 13.2 12.7 11.9 92 0.7 SSW 6 7 3 4 1018.8 1018.8 0.0
14/05:00am 12.7 11.6 11.8 94 0.5 SW 9 11 5 6 1018.4 1018.4 0.0
14/04:30am 12.5 11.2 11.4 93 0.6 SW 9 9 5 5 1018.2 1018.2 0.0
14/04:00am 11.8 10.6 9.7 87 1.1 SSW 6 7 3 4 1017.9 1017.9 0.0
14/03:30am 13.4 12.8 11.6 89 1.0 SW 6 7 3 4 1017.9 1017.9 0.0
14/03:00am 13.7 12.5 11.6 87 1.1 WSW 9 11 5 6 1018.2 1018.2 0.0
14/02:30am 14.1 14.3 11.8 86 1.2 SW 2 9 1 5 1018.2 1018.2 0.0
14/02:00am 14.2 14.3 11.5 84 1.4 SW 2 6 1 3 1018.5 1018.5 0.0
14/01:30am 14.5 13.6 11.5 82 1.6 SW 7 9 4 5 1018.8 1018.8 0.0
14/01:00am 15.7 14.5 11.7 77 2.2 SSW 9 17 5 9 1019.0 1019.0 0.0
14/12:30am 16.2 14.4 12.0 76 2.3 SSW 13 19 7 10 1019.2 1019.2 0.0
14/12:00am 16.1 13.8 11.9 76 2.3 SSW 15 20 8 11 1019.4 1019.4 0.0
 
Date/Time
EST
Temp
°C
App
Temp
°C
Dew
Point
°C
Rel
Hum
%
Delta-T
°C
Wind Press
QNH
hPa
Press
MSL
hPa
Rain since
9am
mm
Dir  Spd
km/h
Gust
km/h
Spd
kts
Gust
kts
13/11:30pm 16.2 14.0 12.0 76 2.3 SSW 15 20 8 11 1019.7 1019.7 0.0
13/11:00pm 16.2 14.0 12.0 76 2.3 SSW 15 20 8 11 1019.8 1019.8 0.0
13/10:30pm 16.2 14.4 12.2 77 2.2 SSW 13 17 7 9 1019.7 1019.7 0.0
13/10:00pm 16.1 14.7 12.3 78 2.1 SSW 11 20 6 11 1019.7 1019.7 0.0
13/09:30pm 16.0 14.7 12.4 79 2.0 SSW 11 13 6 7 1019.6 1019.6 0.0
13/09:00pm 16.4 14.7 12.6 78 2.1 SSW 13 19 7 10 1019.7 1019.7 0.0
13/08:30pm 16.5 14.8 12.3 76 2.3 SSW 13 19 7 10 1019.8 1019.8 0.0
13/08:00pm 16.4 14.3 12.4 77 2.2 S 15 20 8 11 1019.5 1019.5 0.0
13/07:30pm 16.5 15.1 12.1 75 2.4 S 11 15 6 8 1019.3 1019.3 0.0
13/07:00pm 16.9 15.1 12.2 74 2.6 SSW 13 15 7 8 1019.0 1019.0 0.0
13/06:30pm 17.1 15.3 12.2 73 2.7 S 13 19 7 10 1018.4 1018.4 0.0
13/06:00pm 17.7 14.7 11.9 69 3.2 SSE 19 28 10 15 1018.0 1018.0 0.0
13/05:30pm 18.5 15.1 12.5 68 3.3 SSE 22 32 12 17 1017.4 1017.4 0.0
13/05:00pm 19.3 14.9 12.8 66 3.7 SSE 28 39 15 21 1016.9 1016.9 0.0
13/04:57pm 19.4 14.9 12.7 65 3.8 SSE 28 46 15 25 1016.9 1016.9 0.0
13/04:30pm 20.1 14.4 11.3 57 4.8 SE 32 44 17 24 1016.6 1016.6 0.0
13/04:00pm 20.7 15.3 10.8 53 5.4 SSE 30 41 16 22 1016.6 1016.6 0.0
13/03:30pm 20.3 15.6 10.7 54 5.2 SSE 26 37 14 20 1016.4 1016.4 0.0
13/03:00pm 21.4 15.6 10.9 51 5.8 SE 32 41 17 22 1016.3 1016.3 0.0
13/02:30pm 21.4 16.1 11.1 52 5.7 SE 30 39 16 21 1016.4 1016.4 0.0
13/02:00pm 21.6 16.9 11.9 54 5.4 SSE 28 39 15 21 1016.6 1016.6 0.0
13/01:30pm 20.9 16.8 11.3 54 5.3 SE 24 39 13 21 1016.7 1016.7 0.0
13/01:00pm 20.8 16.8 11.7 56 5.1 SSE 24 35 13 19 1016.9 1016.9 0.0
13/12:30pm 22.7 19.7 12.6 53 5.8 SSE 20 28 11 15 1016.9 1016.9 0.0
13/12:00pm 21.0 17.2 11.1 53 5.4 SSE 22 30 12 16 1016.9 1016.9 0.0
13/11:30am 22.5 19.5 12.4 52 5.7 S 20 33 11 18 1017.1 1017.1 0.0
13/11:00am 21.6 16.6 11.0 51 5.8 SSE 28 39 15 21 1017.2 1017.2 0.0
13/10:30am 20.9 16.4 10.1 50 5.8 S 24 37 13 20 1017.1 1017.1 0.0
13/10:00am 20.7 17.2 10.8 53 5.4 SSW 20 33 11 18 1017.4 1017.4 0.0
13/09:30am 19.7 16.1 10.4 55 5.0 SW 20 39 11 21 1017.5 1017.5 0.0
13/09:00am 19.9 16.7 11.1 57 4.8 SSW 19 35 10 19 1017.5 1017.5 5.4
13/08:30am 18.4 13.9 10.0 58 4.5 SSW 24 39 13 21 1017.5 1017.5 5.2
13/08:00am 18.5 14.8 10.3 59 4.4 SW 20 33 11 18 1017.3 1017.3 5.2
13/07:30am 17.6 14.7 9.8 60 4.1 SW 15 26 8 14 1017.2 1017.2 5.2
13/07:00am 16.9 14.8 9.6 62 3.8 SW 11 20 6 11 1016.8 1016.8 5.2
13/06:30am 16.2 14.4 9.6 65 3.4 SW 9 19 5 10 1016.5 1016.5 5.2
13/06:00am 15.3 13.2 9.9 70 2.8 SW 11 17 6 9 1016.3 1016.3 5.2
13/05:30am 14.2 12.1 9.6 74 2.4 SW 11 17 6 9 1015.8 1015.8 5.2
13/05:00am 14.2 12.9 9.8 75 2.3 WSW 7 13 4 7 1015.5 1015.5 5.2
13/04:30am 14.5 12.1 9.9 74 2.4 SSW 13 26 7 14 1014.8 1014.8 5.2
13/04:00am 14.5 11.7 10.1 75 2.3 SSW 15 26 8 14 1014.2 1014.2 5.2
13/03:30am 14.5 11.4 10.3 76 2.2 SSW 17 24 9 13 1014.2 1014.2 5.2
13/03:00am 14.3 11.6 10.3 77 2.1 SSW 15 24 8 13 1014.2 1014.2 5.2
13/02:30am 14.5 11.8 10.5 77 2.1 SW 15 22 8 12 1014.1 1014.1 5.2
13/02:00am 14.5 12.3 10.7 78 2.0 SSW 13 20 7 11 1014.1 1014.1 5.2
13/01:30am 14.3 12.0 10.5 78 2.0 SSW 13 19 7 10 1014.0 1014.0 5.2
13/01:00am 14.7 11.7 10.7 77 2.1 SSW 17 26 9 14 1014.1 1014.1 5.2
13/12:30am 15.0 12.1 11.0 77 2.1 SW 17 24 9 13 1014.4 1014.4 5.2
13/12:00am 14.5 12.7 10.7 78 2.0 SW 11 22 6 12 1014.6 1014.6 5.2
 
Date/Time
EST
Temp
°C
App
Temp
°C
Dew
Point
°C
Rel
Hum
%
Delta-T
°C
Wind Press
QNH
hPa
Press
MSL
hPa
Rain since
9am
mm
Dir  Spd
km/h
Gust
km/h
Spd
kts
Gust
kts
12/11:30pm 15.0 12.5 11.0 77 2.1 SSW 15 26 8 14 1014.8 1014.8 5.2
12/11:00pm 15.1 12.2 11.1 77 2.1 SSW 17 28 9 15 1014.7 1014.7 5.2
12/10:30pm 14.8 11.9 11.0 78 2.0 SSW 17 24 9 13 1014.4 1014.4 5.2
12/10:00pm 15.1 12.2 11.1 77 2.1 SSW 17 26 9 14 1014.7 1014.7 5.2
12/09:30pm 14.6 12.9 11.2 80 1.8 SW 11 17 6 9 1014.8 1014.8 5.2
12/09:00pm 14.9 12.5 11.3 79 1.9 SW 15 20 8 11 1014.7 1014.7 5.2
12/08:30pm 15.0 12.9 11.0 77 2.1 SSW 13 19 7 10 1014.6 1014.6 5.2
12/08:00pm 14.5 12.8 11.1 80 1.8 S 11 15 6 8 1014.1 1014.1 5.2
12/07:30pm 14.1 12.7 10.9 81 1.7 S 9 11 5 6 1013.5 1013.5 5.2
12/07:00pm 14.5 12.7 10.7 78 2.0 S 11 15 6 8 1013.3 1013.3 5.2
12/06:30pm 14.1 12.3 10.9 81 1.7 S 11 15 6 8 1013.1 1013.1 5.2
12/06:00pm 15.2 13.8 11.0 76 2.2 SSW 9 15 5 8 1012.7 1012.7 5.2
12/05:30pm 15.8 13.4 11.4 75 2.4 SW 15 19 8 10 1012.3 1012.3 5.2
12/05:00pm 15.7 14.1 11.7 77 2.2 SSW 11 15 6 8 1012.2 1012.1 5.2
12/04:30pm 15.8 14.5 11.4 75 2.4 SW 9 13 5 7 1011.9 1011.8 5.2
12/04:00pm 16.1 14.2 11.7 75 2.4 SW 13 17 7 9 1011.6 1011.5 5.2
12/03:30pm 16.3 14.6 12.3 77 2.2 SW 13 19 7 10 1011.2 1011.1 5.2
12/03:00pm 16.0 14.0 12.7 81 1.8 S 15 20 8 11 1011.3 1011.2 5.2
12/02:30pm 15.9 13.0 12.3 79 2.0 S 19 24 10 13 1011.4 1011.3 5.2
12/02:00pm 15.6 14.2 13.3 86 1.3 SSE 13 19 7 10 1011.9 1011.8 5.2

Latest Capital City Observations: Canberra | Sydney | Melbourne | Brisbane | Adelaide | Perth | Hobart | Darwin

Other formats

Comma delimited format used in spreadsheet applications
http://www.bom.gov.au/fwo/IDQ60901/IDQ60901.94592.axf

JavaScript Object Notation format (JSON) in row-major order
http://www.bom.gov.au/fwo/IDQ60901/IDQ60901.94592.json

Data quality

Most of these data are generated automatically and are frequently updated. Quality checks on data are not normally performed. It is possible for incorrect values to appear. Refer to information at About Latest Weather Observations and please check the disclaimer before using these data.